^^
Station Historical Data
Daily Summary for February 23, 2017 Units:  English    Metric   Both
« Previous Day
Next Day »
Daily Weekly Monthly Yearly Custom
  High: Low: Average:
Temperature: 71.3 °F 34.7 °F 51.9 °F
Dew Point: 55.3 °F 32.3 °F 45.5 °F
Humidity: 94 % 56 % 80 %
Wind Speed: 8.7 mph 0.0 mph 0.8 mph
Wind Gust: 12.7 mph - -
Wind:- - WSW
Pressure: 29.92 in 29.79 in -
Precipitation: 0.00 in    
Historical Graphs
 
 
Tabular Data for February 23, 2017
Time Temperature Dew Point Pressure Wind Wind Speed Wind Gust Humidity Rainfall Rate (Hourly) solar Conditions
00:04 40.9 °F 37.0 °F 29.91 in Calm     86 % 0.00 in 0.0 W/m2 OVC
00:09 41.0 °F 37.1 °F 29.91 in Calm     86 % 0.00 in 0.0 W/m2 OVC
00:14 40.7 °F 36.8 °F 29.91 in Calm     86 % 0.00 in 0.0 W/m2 OVC
00:19 40.5 °F 36.6 °F 29.91 in Calm     86 % 0.00 in 0.0 W/m2 OVC
00:24 40.4 °F 36.5 °F 29.91 in Calm     86 % 0.00 in 0.0 W/m2 OVC
00:29 40.3 °F 36.7 °F 29.91 in Calm     87 % 0.00 in 0.0 W/m2 OVC
00:34 40.3 °F 36.7 °F 29.91 in Calm     87 % 0.00 in 0.0 W/m2 OVC
00:39 40.1 °F 36.5 °F 29.90 in Calm     87 % 0.00 in 0.0 W/m2 OVC
00:44 40.1 °F 36.5 °F 29.90 in Calm     87 % 0.00 in 0.0 W/m2 OVC
00:49 39.9 °F 36.3 °F 29.90 in Calm     87 % 0.00 in 0.0 W/m2 OVC
00:54 39.7 °F 36.1 °F 29.90 in Calm     87 % 0.00 in 0.0 W/m2 OVC
00:59 39.5 °F 36.0 °F 29.91 in Calm     87 % 0.00 in 0.0 W/m2 OVC
01:04 39.4 °F 35.9 °F 29.91 in Calm     87 % 0.00 in 0.0 W/m2 OVC
01:09 39.4 °F 36.1 °F 29.91 in Calm     88 % 0.00 in 0.0 W/m2 OVC
01:14 39.4 °F 35.9 °F 29.91 in Calm     87 % 0.00 in 0.0 W/m2 OVC
01:19 39.3 °F 35.8 °F 29.91 in Calm     87 % 0.00 in 0.0 W/m2 OVC
01:24 39.0 °F 35.5 °F 29.90 in Calm     87 % 0.00 in 0.0 W/m2 OVC
01:29 38.9 °F 35.6 °F 29.90 in Calm     88 % 0.00 in 0.0 W/m2 OVC
01:34 39.0 °F 35.7 °F 29.90 in Calm     88 % 0.00 in 0.0 W/m2 OVC
01:39 38.9 °F 35.6 °F 29.90 in Calm     88 % 0.00 in 0.0 W/m2 OVC
01:44 38.8 °F 35.6 °F 29.90 in Calm     88 % 0.00 in 0.0 W/m2 OVC
01:49 38.4 °F 35.2 °F 29.90 in Calm     88 % 0.00 in 0.0 W/m2 OVC
01:54 38.2 °F 35.0 °F 29.90 in Calm     88 % 0.00 in 0.0 W/m2 OVC
01:59 38.3 °F 35.1 °F 29.90 in Calm     88 % 0.00 in 0.0 W/m2 OVC
02:04 38.2 °F 35.0 °F 29.90 in Calm     88 % 0.00 in 0.0 W/m2 OVC
02:09 37.8 °F 34.8 °F 29.90 in Calm     89 % 0.00 in 0.0 W/m2 OVC
02:14 37.7 °F 34.8 °F 29.90 in Calm     89 % 0.00 in 0.0 W/m2 OVC
02:19 37.6 °F 34.7 °F 29.89 in Calm     89 % 0.00 in 0.0 W/m2 OVC
02:24 37.7 °F 34.8 °F 29.89 in Calm     89 % 0.00 in 0.0 W/m2 OVC
02:29 37.7 °F 34.8 °F 29.89 in Calm     89 % 0.00 in 0.0 W/m2 OVC
02:34 37.7 °F 34.8 °F 29.89 in Calm     89 % 0.00 in 0.0 W/m2 OVC
02:39 37.7 °F 34.8 °F 29.89 in Calm     89 % 0.00 in 0.0 W/m2 OVC
02:44 37.3 °F 34.4 °F 29.89 in Calm     89 % 0.00 in 0.0 W/m2 OVC
02:49 37.2 °F 34.3 °F 29.88 in Calm     89 % 0.00 in 0.0 W/m2 OVC
02:54 37.0 °F 34.1 °F 29.88 in Calm     89 % 0.00 in 0.0 W/m2 OVC
02:59 37.0 °F 34.1 °F 29.88 in Calm     89 % 0.00 in 0.0 W/m2 OVC
03:04 37.3 °F 34.6 °F 29.88 in Calm     90 % 0.00 in 0.0 W/m2 OVC
03:09 37.3 °F 34.6 °F 29.88 in Calm     90 % 0.00 in 0.0 W/m2 OVC
03:14 37.1 °F 34.4 °F 29.88 in Calm     90 % 0.00 in 0.0 W/m2 OVC
03:19 36.8 °F 34.1 °F 29.88 in Calm     90 % 0.00 in 0.0 W/m2 OVC
03:24 36.6 °F 33.9 °F 29.88 in Calm     90 % 0.00 in 0.0 W/m2 OVC
03:29 36.6 °F 33.9 °F 29.88 in Calm     90 % 0.00 in 0.0 W/m2 OVC
03:34 36.6 °F 33.9 °F 29.88 in Calm     90 % 0.00 in 0.0 W/m2 OVC
03:39 36.7 °F 34.0 °F 29.88 in Calm     90 % 0.00 in 0.0 W/m2 OVC
03:44 36.7 °F 34.0 °F 29.88 in Calm     90 % 0.00 in 0.0 W/m2 OVC
03:49 36.8 °F 34.1 °F 29.88 in Calm     90 % 0.00 in 0.0 W/m2 OVC
03:54 36.8 °F 34.1 °F 29.88 in Calm     90 % 0.00 in 0.0 W/m2 OVC
03:59 36.6 °F 33.9 °F 29.87 in Calm     90 % 0.00 in 0.0 W/m2 OVC
04:04 36.6 °F 33.9 °F 29.87 in Calm     90 % 0.00 in 0.0 W/m2 OVC
04:09 36.7 °F 34.0 °F 29.87 in Calm     90 % 0.00 in 0.0 W/m2 OVC
04:14 36.8 °F 34.1 °F 29.87 in Calm     90 % 0.00 in 0.0 W/m2 OVC
04:19 36.6 °F 33.9 °F 29.87 in Calm     90 % 0.00 in 0.0 W/m2 OVC
04:24 36.6 °F 33.9 °F 29.87 in Calm     90 % 0.00 in 0.0 W/m2 OVC
04:29 36.6 °F 33.9 °F 29.87 in Calm     90 % 0.00 in 0.0 W/m2 OVC
04:34 36.8 °F 34.4 °F 29.87 in Calm     91 % 0.00 in 0.0 W/m2 OVC
04:39 36.6 °F 33.9 °F 29.87 in Calm     90 % 0.00 in 0.0 W/m2 OVC
04:44 36.5 °F 34.1 °F 29.87 in Calm     91 % 0.00 in 0.0 W/m2 OVC
04:49 36.5 °F 34.1 °F 29.87 in Calm     91 % 0.00 in 0.0 W/m2 OVC
04:54 36.5 °F 34.1 °F 29.88 in Calm     91 % 0.00 in 0.0 W/m2 OVC
04:59 36.7 °F 34.3 °F 29.88 in Calm     91 % 0.00 in 0.0 W/m2 OVC
05:04 36.6 °F 34.2 °F 29.88 in Calm     91 % 0.00 in 0.0 W/m2 OVC
05:09 35.9 °F 33.3 °F 29.88 in Calm     90 % 0.00 in 0.0 W/m2 OVC
05:14 35.5 °F 33.1 °F 29.88 in Calm     91 % 0.00 in 0.0 W/m2 OVC
05:19 35.4 °F 33.0 °F 29.89 in Calm     91 % 0.00 in 0.0 W/m2 OVC
05:24 35.4 °F 33.0 °F 29.89 in Calm     91 % 0.00 in 0.0 W/m2 OVC
05:29 35.2 °F 32.8 °F 29.89 in Calm     91 % 0.00 in 0.0 W/m2 OVC
05:34 35.2 °F 32.8 °F 29.89 in Calm     91 % 0.00 in 0.0 W/m2 OVC
05:39 35.2 °F 32.8 °F 29.89 in Calm     91 % 0.00 in 0.0 W/m2 OVC
05:44 35.1 °F 32.7 °F 29.89 in Calm     91 % 0.00 in 0.0 W/m2 OVC
05:49 35.3 °F 32.9 °F 29.89 in Calm     91 % 0.00 in 0.0 W/m2 OVC
05:54 35.4 °F 33.0 °F 29.89 in Calm     91 % 0.00 in 0.0 W/m2 OVC
05:59 35.6 °F 33.2 °F 29.89 in Calm     91 % 0.00 in 0.0 W/m2 OVC
06:04 35.5 °F 33.1 °F 29.90 in Calm     91 % 0.00 in 0.0 W/m2 OVC
06:09 35.4 °F 33.0 °F 29.90 in Calm     91 % 0.00 in 0.0 W/m2 OVC
06:14 35.3 °F 32.9 °F 29.90 in Calm     91 % 0.00 in 0.0 W/m2 OVC
06:19 35.2 °F 32.8 °F 29.90 in Calm     91 % 0.00 in 0.0 W/m2 OVC
06:24 34.9 °F 32.5 °F 29.90 in Calm     91 % 0.00 in 0.0 W/m2 OVC
06:29 34.9 °F 32.5 °F 29.90 in Calm     91 % 0.00 in 0.0 W/m2 OVC
06:34 34.9 °F 32.5 °F 29.90 in Calm     91 % 0.00 in 0.0 W/m2 OVC
06:39 34.8 °F 32.4 °F 29.90 in Calm     91 % 0.00 in 0.0 W/m2 OVC
06:44 34.7 °F 32.3 °F 29.90 in Calm     91 % 0.00 in 0.0 W/m2 OVC
06:49 34.8 °F 32.4 °F 29.90 in Calm     91 % 0.00 in 5.0 W/m2 OVC
06:54 35.2 °F 32.8 °F 29.91 in Calm     91 % 0.00 in 9.0 W/m2 OVC
06:59 35.0 °F 32.6 °F 29.91 in Calm   1.0 mph 91 % 0.00 in 11.0 W/m2 OVC
07:04 34.9 °F 32.5 °F 29.90 in Calm   1.0 mph 91 % 0.00 in 15.0 W/m2 CLR
07:09 35.3 °F 32.9 °F 29.91 in Calm     91 % 0.00 in 21.0 W/m2 CLR
07:14 35.8 °F 33.7 °F 29.91 in Calm     92 % 0.00 in 28.0 W/m2 CLR
07:19 36.1 °F 33.7 °F 29.91 in Calm     91 % 0.00 in 14.0 W/m2 BKN
07:26 36.3 °F 33.9 °F 29.91 in Calm     91 % 0.00 in 16.0 W/m2 CLR
07:31 36.8 °F 34.7 °F 29.91 in Calm     92 % 0.00 in 28.0 W/m2 BKN
07:36 37.1 °F 35.0 °F 29.91 in Calm     92 % 0.00 in 35.0 W/m2 SCT
07:41 37.6 °F 35.5 °F 29.92 in Calm     92 % 0.00 in 54.0 W/m2 SCT
07:46 38.5 °F 36.4 °F 29.92 in Calm   1.2 mph 92 % 0.00 in 69.0 W/m2 FEW
07:51 39.2 °F 37.1 °F 29.91 in Calm     92 % 0.00 in 65.0 W/m2 FEW
07:56 39.8 °F 37.7 °F 29.91 in Calm     92 % 0.00 in 69.0 W/m2 SCT
08:01 40.3 °F 38.2 °F 29.92 in Calm     92 % 0.00 in 47.0 W/m2 SCT
08:06 40.6 °F 38.5 °F 29.91 in Calm     92 % 0.00 in 62.0 W/m2 BKN
08:11 40.9 °F 38.5 °F 29.91 in Calm     91 % 0.00 in 69.0 W/m2 BKN
08:16 41.3 °F 38.9 °F 29.91 in Calm     91 % 0.00 in 109.0 W/m2 SCT
08:21 41.9 °F 39.5 °F 29.91 in Calm     91 % 0.00 in 111.0 W/m2 FEW
08:26 42.3 °F 39.9 °F 29.91 in Calm     91 % 0.00 in 74.0 W/m2 SCT
08:27 42.3 °F 39.6 °F 29.91 in Calm     90 % 0.00 in 74.0 W/m2 SCT
08:32 42.3 °F 39.6 °F 29.91 in Calm     90 % 0.00 in 70.0 W/m2 BKN
08:37 42.5 °F 39.8 °F 29.91 in Calm     90 % 0.00 in 167.0 W/m2 SCT
08:42 42.8 °F 40.1 °F 29.91 in WSW 0.9 mph 2.0 mph 90 % 0.00 in 148.0 W/m2 SCT
08:47 42.4 °F 39.4 °F 29.91 in Calm     89 % 0.00 in 113.0 W/m2 BKN
08:52 42.6 °F 39.9 °F 29.91 in Calm     90 % 0.00 in 109.0 W/m2 BKN
08:57 42.9 °F 40.2 °F 29.91 in Calm     90 % 0.00 in 107.0 W/m2 BKN
09:02 43.1 °F 40.4 °F 29.91 in Calm     90 % 0.00 in 84.0 W/m2 BKN
09:07 43.1 °F 40.4 °F 29.92 in WSW 1.8 mph 3.5 mph 90 % 0.00 in 76.0 W/m2 OVC
09:12 43.2 °F 40.8 °F 29.92 in Calm   1.2 mph 91 % 0.00 in 83.0 W/m2 BKN
09:17 43.2 °F 40.8 °F 29.92 in Calm     91 % 0.00 in 46.0 W/m2 OVC
09:18 43.2 °F 40.8 °F 29.92 in Calm     91 % 0.00 in 46.0 W/m2 OVC
09:23 43.2 °F 41.0 °F 29.92 in Calm     92 % 0.00 in 91.0 W/m2 OVC
09:28 43.3 °F 41.1 °F 29.92 in Calm     92 % 0.00 in 149.0 W/m2 BKN
09:33 43.5 °F 41.3 °F 29.91 in Calm     92 % 0.00 in 178.0 W/m2 BKN
09:38 43.9 °F 42.0 °F 29.92 in Calm     93 % 0.00 in 181.0 W/m2 BKN
09:43 44.0 °F 42.1 °F 29.91 in Calm     93 % 0.00 in 206.0 W/m2 SCT
09:48 44.4 °F 42.5 °F 29.91 in Calm     93 % 0.00 in 192.0 W/m2 BKN
09:53 44.9 °F 43.0 °F 29.91 in Calm     93 % 0.00 in 221.0 W/m2 SCT
09:58 45.4 °F 43.8 °F 29.91 in Calm     94 % 0.00 in 206.0 W/m2 SCT
10:03 45.6 °F 43.7 °F 29.91 in Calm     93 % 0.00 in 216.0 W/m2 SCT
10:08 46.1 °F 44.2 °F 29.91 in Calm     93 % 0.00 in 204.0 W/m2 BKN
10:13 46.3 °F 44.4 °F 29.91 in Calm     93 % 0.00 in 200.0 W/m2 BKN
10:18 46.6 °F 44.7 °F 29.91 in Calm     93 % 0.00 in 218.0 W/m2 BKN
10:23 47.2 °F 45.3 °F 29.90 in Calm   1.2 mph 93 % 0.00 in 260.0 W/m2 SCT
10:28 47.8 °F 45.9 °F 29.91 in WSW 1.1 mph 2.3 mph 93 % 0.00 in 230.0 W/m2 SCT
10:33 48.2 °F 46.3 °F 29.91 in WSW 0.8 mph 2.3 mph 93 % 0.00 in 255.0 W/m2 SCT
10:38 49.1 °F 46.9 °F 29.91 in NW 0.4 mph 3.5 mph 92 % 0.00 in 244.0 W/m2 SCT
10:43 49.8 °F 47.6 °F 29.91 in West 3.2 mph 6.0 mph 92 % 0.00 in 232.0 W/m2 BKN
10:48 50.1 °F 47.9 °F 29.91 in West 4.9 mph 6.0 mph 92 % 0.00 in 294.0 W/m2 SCT
10:53 50.6 °F 48.4 °F 29.90 in West 4.6 mph 7.0 mph 92 % 0.00 in 380.0 W/m2 FEW
10:58 50.9 °F 48.4 °F 29.90 in West 3.4 mph 5.8 mph 91 % 0.00 in 338.0 W/m2 FEW
11:03 51.3 °F 48.8 °F 29.90 in West 4.0 mph 4.0 mph 91 % 0.00 in 378.0 W/m2 SCT
11:08 51.7 °F 48.9 °F 29.90 in West 5.9 mph 8.1 mph 90 % 0.00 in 520.0 W/m2 CLR
11:13 52.4 °F 49.6 °F 29.90 in WNW 3.2 mph 5.8 mph 90 % 0.00 in 497.0 W/m2 CLR
11:18 52.8 °F 49.6 °F 29.90 in West 4.6 mph 6.9 mph 89 % 0.00 in 359.0 W/m2 SCT
11:24 52.8 °F 49.6 °F 29.90 in WNW 0.4 mph 3.5 mph 89 % 0.00 in 441.0 W/m2 FEW
11:29 53.7 °F 49.9 °F 29.89 in NNW 2.0 mph 3.5 mph 87 % 0.00 in 671.0 W/m2 CLR
11:34 54.2 °F 50.4 °F 29.89 in West 0.7 mph 2.3 mph 87 % 0.00 in 650.0 W/m2 CLR
11:39 54.4 °F 50.0 °F 29.89 in SW 4.2 mph 4.6 mph 85 % 0.00 in 566.0 W/m2 CLR
11:44 55.2 °F 50.8 °F 29.89 in WNW 1.2 mph 3.5 mph 85 % 0.00 in 666.0 W/m2 CLR
11:49 55.8 °F 51.0 °F 29.89 in NW 3.5 mph 6.9 mph 84 % 0.00 in 724.0 W/m2 CLR
11:54 56.7 °F 50.9 °F 29.88 in NW 0.1 mph 1.2 mph 81 % 0.00 in 334.0 W/m2 SCT
11:59 56.8 °F 51.0 °F 29.88 in West 5.1 mph 6.9 mph 81 % 0.00 in 404.0 W/m2 FEW
12:04 56.7 °F 50.9 °F 29.88 in WNW 3.9 mph 6.9 mph 81 % 0.00 in 652.0 W/m2 CLR
12:09 57.3 °F 51.2 °F 29.88 in NW 2.2 mph 3.5 mph 80 % 0.00 in 671.0 W/m2 CLR
12:14 57.8 °F 51.7 °F 29.87 in NW 1.5 mph 3.5 mph 80 % 0.00 in 677.0 W/m2 CLR
12:19 57.7 °F 51.2 °F 29.87 in West 0.1 mph   79 % 0.00 in 721.0 W/m2 CLR
12:24 58.0 °F 51.2 °F 29.86 in WSW 0.7 mph 3.0 mph 78 % 0.00 in 696.0 W/m2 CLR
12:29 58.4 °F 52.3 °F 29.86 in Calm     80 % 0.00 in 765.0 W/m2 CLR
12:34 58.9 °F 52.1 °F 29.86 in WSW 0.1 mph 1.0 mph 78 % 0.00 in 668.0 W/m2 CLR
12:39 59.3 °F 52.1 °F 29.85 in West 1.1 mph 3.5 mph 77 % 0.00 in 701.0 W/m2 CLR
12:44 60.0 °F 52.1 °F 29.85 in WSW 2.4 mph 5.0 mph 75 % 0.00 in 738.0 W/m2 CLR
12:49 60.1 °F 52.1 °F 29.85 in NW 4.5 mph 5.8 mph 75 % 0.00 in 773.0 W/m2 CLR
12:54 61.0 °F 52.3 °F 29.85 in WNW 3.3 mph 5.8 mph 73 % 0.00 in 448.0 W/m2 FEW
12:59 60.5 °F 52.2 °F 29.84 in WSW 0.7 mph 3.5 mph 74 % 0.00 in 429.0 W/m2 FEW
13:04 60.6 °F 51.9 °F 29.84 in WSW 1.8 mph 3.5 mph 73 % 0.00 in 318.0 W/m2 SCT
13:09 60.8 °F 52.1 °F 29.84 in West 0.5 mph   73 % 0.00 in 323.0 W/m2 SCT
13:14 61.1 °F 52.4 °F 29.83 in Calm     73 % 0.00 in 311.0 W/m2 SCT
13:19 61.4 °F 52.7 °F 29.83 in WSW 2.8 mph 6.0 mph 73 % 0.00 in 272.0 W/m2 SCT
13:24 61.2 °F 52.5 °F 29.83 in West 0.5 mph 6.0 mph 73 % 0.00 in 288.0 W/m2 SCT
13:29 61.5 °F 52.4 °F 29.83 in WSW 2.9 mph 6.9 mph 72 % 0.00 in 244.0 W/m2 BKN
13:34 61.7 °F 52.6 °F 29.83 in WSW 2.4 mph 2.4 mph 72 % 0.00 in 202.0 W/m2 BKN
13:39 61.8 °F 52.7 °F 29.83 in West 3.3 mph 5.8 mph 72 % 0.00 in 153.0 W/m2 BKN
13:44 61.7 °F 52.6 °F 29.83 in Calm     72 % 0.00 in 144.0 W/m2 BKN
13:49 62.1 °F 53.0 °F 29.82 in WSW 0.6 mph 2.0 mph 72 % 0.00 in 244.0 W/m2 BKN
13:54 62.2 °F 53.1 °F 29.82 in Calm   3.5 mph 72 % 0.00 in 246.0 W/m2 SCT
13:59 62.6 °F 53.1 °F 29.82 in WSW 2.0 mph 3.0 mph 71 % 0.00 in 260.0 W/m2 BKN
14:04 62.8 °F 53.3 °F 29.81 in WSW 3.0 mph 4.0 mph 71 % 0.00 in 251.0 W/m2 BKN
14:18 63.7 °F 53.7 °F 29.81 in SW 0.6 mph 2.3 mph 70 % 0.00 in 526.0 W/m2 CLR
14:23 64.5 °F 54.1 °F 29.80 in Calm   5.8 mph 69 % 0.00 in 517.0 W/m2 CLR
14:28 65.3 °F 54.1 °F 29.80 in SW 0.7 mph 1.0 mph 67 % 0.00 in 504.0 W/m2 CLR
14:33 66.0 °F 54.3 °F 29.80 in SSW 0.5 mph 4.6 mph 66 % 0.00 in 492.0 W/m2 CLR
14:38 66.6 °F 54.5 °F 29.80 in SSW 1.3 mph 3.5 mph 65 % 0.00 in 480.0 W/m2 CLR
14:43 67.0 °F 54.8 °F 29.80 in WSW 1.3 mph 3.0 mph 65 % 0.00 in 471.0 W/m2 CLR
14:48 67.4 °F 54.8 °F 29.80 in West 0.8 mph 2.0 mph 64 % 0.00 in 457.0 W/m2 CLR
14:53 67.9 °F 55.3 °F 29.80 in Calm   3.5 mph 64 % 0.00 in 446.0 W/m2 CLR
14:58 68.6 °F 55.1 °F 29.79 in WNW 2.9 mph 3.0 mph 62 % 0.00 in 434.0 W/m2 CLR
15:03 70.1 °F 55.1 °F 29.79 in SW 1.4 mph 8.1 mph 59 % 0.00 in 422.0 W/m2 CLR
15:08 70.6 °F 55.1 °F 29.79 in SSW 8.7 mph 10.0 mph 58 % 0.00 in 411.0 W/m2 CLR
15:13 70.4 °F 54.9 °F 29.79 in SSW 7.2 mph 8.1 mph 58 % 0.00 in 401.0 W/m2 CLR
15:18 70.6 °F 55.1 °F 29.79 in SSW 5.6 mph 10.4 mph 58 % 0.00 in 387.0 W/m2 CLR
15:23 70.7 °F 54.7 °F 29.79 in SW 7.0 mph 12.7 mph 57 % 0.00 in 373.0 W/m2 CLR
15:28 70.9 °F 54.9 °F 29.79 in WSW 3.3 mph 6.9 mph 57 % 0.00 in 355.0 W/m2 CLR
15:34 71.0 °F 55.0 °F 29.79 in SSW 5.6 mph 10.0 mph 57 % 0.00 in 341.0 W/m2 CLR
15:39 70.7 °F 54.7 °F 29.79 in South 6.1 mph 8.1 mph 57 % 0.00 in 325.0 W/m2 CLR
15:44 70.6 °F 55.1 °F 29.79 in SSW 5.8 mph 9.2 mph 58 % 0.00 in 309.0 W/m2 CLR
15:49 71.1 °F 55.1 °F 29.79 in SSW 7.8 mph 11.5 mph 57 % 0.00 in 295.0 W/m2 CLR
15:54 71.3 °F 55.3 °F 29.79 in WSW 4.9 mph 8.1 mph 57 % 0.00 in 283.0 W/m2 CLR
15:59 71.2 °F 54.7 °F 29.79 in SSW 6.1 mph 10.4 mph 56 % 0.00 in 265.0 W/m2 CLR
16:04 71.1 °F 54.6 °F 29.79 in SSW 5.7 mph 9.2 mph 56 % 0.00 in 218.0 W/m2 CLR
16:09 71.2 °F 55.2 °F 29.79 in WSW 2.5 mph 4.6 mph 57 % 0.00 in 230.0 W/m2 CLR
16:14 70.9 °F 54.4 °F 29.79 in SW 5.6 mph 9.0 mph 56 % 0.00 in 221.0 W/m2 FEW
16:19 70.8 °F 54.8 °F 29.79 in SSW 4.4 mph 5.8 mph 57 % 0.00 in 223.0 W/m2 CLR
16:24 70.9 °F 54.9 °F 29.80 in SW 3.8 mph 6.9 mph 57 % 0.00 in 121.0 W/m2 SCT
16:29 70.8 °F 54.8 °F 29.80 in SW 2.9 mph 4.6 mph 57 % 0.00 in 91.0 W/m2 FEW
16:34 70.6 °F 54.6 °F 29.80 in WSW 3.3 mph 5.8 mph 57 % 0.00 in 72.0 W/m2 BKN
16:39 70.4 °F 54.9 °F 29.80 in West 3.1 mph 3.5 mph 58 % 0.00 in 120.0 W/m2 FEW
16:44 70.5 °F 55.0 °F 29.80 in Calm   1.2 mph 58 % 0.00 in 111.0 W/m2 CLR
16:49 70.3 °F 54.8 °F 29.80 in SW 1.2 mph 3.0 mph 58 % 0.00 in 62.0 W/m2 SCT
16:54 70.1 °F 55.1 °F 29.80 in Calm     59 % 0.00 in 39.0 W/m2 BKN
16:59 69.8 °F 54.8 °F 29.80 in Calm     59 % 0.00 in 33.0 W/m2 BKN
17:04 69.3 °F 54.8 °F 29.81 in WSW 1.3 mph 2.0 mph 60 % 0.00 in 28.0 W/m2 BKN
17:09 69.0 °F 54.5 °F 29.81 in Calm     60 % 0.00 in 25.0 W/m2 BKN
17:14 68.7 °F 54.7 °F 29.81 in Calm     61 % 0.00 in 21.0 W/m2 BKN
17:19 68.4 °F 54.4 °F 29.81 in Calm     61 % 0.00 in 16.0 W/m2 BKN
17:24 68.3 °F 54.8 °F 29.81 in Calm     62 % 0.00 in 16.0 W/m2 BKN
17:29 68.1 °F 54.6 °F 29.82 in Calm     62 % 0.00 in 19.0 W/m2 SCT
17:34 67.7 °F 54.2 °F 29.82 in Calm     62 % 0.00 in 14.0 W/m2 CLR
17:39 67.2 °F 54.2 °F 29.82 in Calm     63 % 0.00 in 9.0 W/m2 CLR
17:44 66.3 °F 54.2 °F 29.82 in Calm     65 % 0.00 in 0.0 W/m2 CLR
17:49 65.8 °F 54.1 °F 29.83 in Calm     66 % 0.00 in 0.0 W/m2 CLR
17:54 65.4 °F 54.2 °F 29.83 in Calm     67 % 0.00 in 0.0 W/m2 CLR
17:59 65.6 °F 54.3 °F 29.83 in Calm     67 % 0.00 in 0.0 W/m2 CLR
18:04 64.9 °F 54.1 °F 29.83 in Calm     68 % 0.00 in 0.0 W/m2 CLR
18:09 64.5 °F 53.7 °F 29.83 in Calm     68 % 0.00 in 0.0 W/m2 CLR
18:14 64.5 °F 54.1 °F 29.84 in Calm     69 % 0.00 in 0.0 W/m2 CLR
18:19 64.5 °F 54.1 °F 29.84 in Calm     69 % 0.00 in 0.0 W/m2 CLR
18:24 64.1 °F 53.7 °F 29.84 in Calm     69 % 0.00 in 0.0 W/m2 CLR
18:29 64.3 °F 53.9 °F 29.84 in Calm     69 % 0.00 in 0.0 W/m2 CLR
18:34 64.4 °F 54.0 °F 29.84 in Calm     69 % 0.00 in 0.0 W/m2 CLR
18:39 64.2 °F 53.8 °F 29.84 in Calm     69 % 0.00 in 0.0 W/m2 CLR
18:44 63.5 °F 53.1 °F 29.84 in Calm     69 % 0.00 in 0.0 W/m2 CLR
18:49 63.3 °F 53.4 °F 29.84 in Calm     70 % 0.00 in 0.0 W/m2 CLR
18:54 63.4 °F 53.4 °F 29.85 in Calm     70 % 0.00 in 0.0 W/m2 CLR
18:59 62.9 °F 53.0 °F 29.85 in Calm     70 % 0.00 in 0.0 W/m2 CLR
19:04 62.8 °F 53.3 °F 29.85 in Calm     71 % 0.00 in 0.0 W/m2 CLR
19:09 62.1 °F 52.6 °F 29.85 in Calm     71 % 0.00 in 0.0 W/m2 CLR
19:14 62.0 °F 52.9 °F 29.85 in Calm     72 % 0.00 in 0.0 W/m2 CLR
19:19 62.2 °F 53.1 °F 29.85 in Calm     72 % 0.00 in 0.0 W/m2 CLR
19:24 61.4 °F 52.7 °F 29.85 in Calm     73 % 0.00 in 0.0 W/m2 CLR
19:26 61.2 °F 52.5 °F 29.85 in Calm     73 % 0.00 in 0.0 W/m2 CLR
19:31 61.2 °F 52.5 °F 29.85 in Calm     73 % 0.00 in 0.0 W/m2 CLR
19:36 61.0 °F 52.7 °F 29.86 in Calm     74 % 0.00 in 0.0 W/m2 CLR
19:41 61.8 °F 53.4 °F 29.85 in Calm     74 % 0.00 in 0.0 W/m2 CLR
19:46 62.7 °F 53.5 °F 29.85 in Calm     72 % 0.00 in 0.0 W/m2 CLR
19:51 62.9 °F 53.7 °F 29.85 in Calm   5.8 mph 72 % 0.00 in 0.0 W/m2 CLR
19:56 63.2 °F 54.0 °F 29.85 in SSW 3.2 mph 5.8 mph 72 % 0.00 in 0.0 W/m2 CLR
20:01 63.7 °F 54.1 °F 29.86 in Calm     71 % 0.00 in 0.0 W/m2 CLR
20:06 63.6 °F 53.6 °F 29.86 in Calm     70 % 0.00 in 0.0 W/m2 CLR
20:11 63.9 °F 53.9 °F 29.86 in Calm     70 % 0.00 in 0.0 W/m2 CLR
20:16 63.6 °F 53.2 °F 29.86 in Calm     69 % 0.00 in 0.0 W/m2 CLR
20:21 63.6 °F 53.6 °F 29.86 in Calm     70 % 0.00 in 0.0 W/m2 CLR
20:26 63.7 °F 53.7 °F 29.87 in Calm     70 % 0.00 in 0.0 W/m2 CLR
20:31 63.6 °F 53.6 °F 29.86 in Calm     70 % 0.00 in 0.0 W/m2 CLR
20:37 63.6 °F 54.0 °F 29.87 in SSW 1.7 mph 3.5 mph 71 % 0.00 in 0.0 W/m2 CLR
20:42 63.8 °F 54.2 °F 29.87 in SW 1.4 mph 3.5 mph 71 % 0.00 in 0.0 W/m2 CLR
20:47 63.8 °F 54.2 °F 29.87 in SW 1.5 mph 3.5 mph 71 % 0.00 in 0.0 W/m2 CLR
20:52 63.8 °F 54.2 °F 29.87 in SSW 2.7 mph 3.5 mph 71 % 0.00 in 0.0 W/m2 CLR
20:57 62.8 °F 53.3 °F 29.87 in SSW 2.0 mph 3.5 mph 71 % 0.00 in 0.0 W/m2 CLR
21:02 62.3 °F 53.5 °F 29.87 in SSW 0.4 mph 2.3 mph 73 % 0.00 in 0.0 W/m2 CLR
21:07 62.5 °F 53.7 °F 29.87 in SSW 0.3 mph 2.0 mph 73 % 0.00 in 0.0 W/m2 CLR
21:12 62.9 °F 53.7 °F 29.87 in Calm     72 % 0.00 in 0.0 W/m2 CLR
21:17 63.2 °F 54.0 °F 29.87 in SSW 0.8 mph 3.5 mph 72 % 0.00 in 0.0 W/m2 CLR
21:22 63.4 °F 54.2 °F 29.87 in SW 1.3 mph 3.5 mph 72 % 0.00 in 0.0 W/m2 CLR
21:27 63.3 °F 53.7 °F 29.87 in SSW 1.3 mph 2.3 mph 71 % 0.00 in 0.0 W/m2 CLR
21:32 63.6 °F 54.4 °F 29.87 in SW 2.4 mph 3.5 mph 72 % 0.00 in 0.0 W/m2 CLR
21:37 63.9 °F 54.3 °F 29.87 in SSW 2.5 mph 5.8 mph 71 % 0.00 in 0.0 W/m2 CLR
21:42 63.9 °F 54.3 °F 29.87 in WSW 0.3 mph 3.5 mph 71 % 0.00 in 0.0 W/m2 CLR
21:43 63.9 °F 54.3 °F 29.87 in WSW 0.4 mph 2.3 mph 71 % 0.00 in 0.0 W/m2 CLR
21:48 63.6 °F 54.0 °F 29.87 in Calm     71 % 0.00 in 0.0 W/m2 CLR
21:53 63.2 °F 53.6 °F 29.87 in Calm     71 % 0.00 in 0.0 W/m2 CLR
21:58 62.5 °F 53.3 °F 29.87 in Calm     72 % 0.00 in 0.0 W/m2 CLR
22:03 61.6 °F 52.5 °F 29.87 in Calm     72 % 0.00 in 0.0 W/m2 CLR
22:08 60.7 °F 52.4 °F 29.87 in Calm     74 % 0.00 in 0.0 W/m2 CLR
22:13 60.5 °F 52.5 °F 29.87 in Calm     75 % 0.00 in 0.0 W/m2 CLR
22:18 59.6 °F 52.0 °F 29.87 in Calm     76 % 0.00 in 0.0 W/m2 CLR
22:23 58.3 °F 50.8 °F 29.87 in Calm     76 % 0.00 in 0.0 W/m2 CLR
22:28 58.4 °F 51.6 °F 29.88 in Calm     78 % 0.00 in 0.0 W/m2 CLR
22:33 58.6 °F 52.1 °F 29.88 in Calm     79 % 0.00 in 0.0 W/m2 CLR
22:38 58.8 °F 52.3 °F 29.88 in Calm   1.0 mph 79 % 0.00 in 0.0 W/m2 CLR
22:43 57.3 °F 50.5 °F 29.89 in NW 2.4 mph 3.5 mph 78 % 0.00 in 0.0 W/m2 CLR
22:48 56.7 °F 50.6 °F 29.89 in Calm   1.2 mph 80 % 0.00 in 0.0 W/m2 CLR
22:53 57.0 °F 51.6 °F 29.89 in Calm     82 % 0.00 in 0.0 W/m2 CLR
22:58 57.6 °F 51.8 °F 29.89 in Calm     81 % 0.00 in 0.0 W/m2 CLR
23:03 57.9 °F 52.1 °F 29.89 in Calm     81 % 0.00 in 0.0 W/m2 CLR
23:08 57.1 °F 50.6 °F 29.89 in Calm     79 % 0.00 in 0.0 W/m2 CLR
23:13 56.6 °F 50.8 °F 29.90 in Calm     81 % 0.00 in 0.0 W/m2 CLR
23:18 55.6 °F 49.9 °F 29.89 in Calm     81 % 0.00 in 0.0 W/m2 CLR
23:23 55.3 °F 50.2 °F 29.89 in Calm     83 % 0.00 in 0.0 W/m2 CLR
23:28 55.5 °F 50.4 °F 29.89 in Calm     83 % 0.00 in 0.0 W/m2 CLR
23:33 55.4 °F 50.3 °F 29.90 in Calm     83 % 0.00 in 0.0 W/m2 CLR
23:38 55.1 °F 50.0 °F 29.90 in Calm     83 % 0.00 in 0.0 W/m2 CLR
23:43 55.0 °F 50.3 °F 29.90 in Calm     84 % 0.00 in 0.0 W/m2 CLR
23:49 55.5 °F 51.1 °F 29.90 in Calm     85 % 0.00 in 0.0 W/m2 CLR
23:54 55.5 °F 50.4 °F 29.90 in Calm     83 % 0.00 in 0.0 W/m2 CLR
23:59 55.2 °F 50.4 °F 29.90 in Calm     84 % 0.00 in 0.0 W/m2 CLR
Air Products Campus Weather
Compliments of Weather Underground - 3.5 mb